sensor_id;sensor_type;location;lat;lon;timestamp;P1;durP1;ratioP1;P2;durP2;ratioP2
30398;SDS011;17195;50.838;7.214;2023-03-31T00:01:33;4.13;;;1.23;;
30398;SDS011;17195;50.838;7.214;2023-03-31T00:03:59;6.07;;;1.00;;
30398;SDS011;17195;50.838;7.214;2023-03-31T00:06:29;3.90;;;0.85;;
30398;SDS011;17195;50.838;7.214;2023-03-31T00:09:02;6.55;;;0.82;;
30398;SDS011;17195;50.838;7.214;2023-03-31T00:11:31;3.65;;;1.00;;
30398;SDS011;17195;50.838;7.214;2023-03-31T00:13:57;5.68;;;0.73;;
30398;SDS011;17195;50.838;7.214;2023-03-31T00:16:22;5.78;;;1.08;;
30398;SDS011;17195;50.838;7.214;2023-03-31T00:18:48;3.58;;;0.90;;
30398;SDS011;17195;50.838;7.214;2023-03-31T00:21:22;5.80;;;0.90;;
30398;SDS011;17195;50.838;7.214;2023-03-31T00:24:01;1.33;;;0.73;;
30398;SDS011;17195;50.838;7.214;2023-03-31T00:26:28;6.78;;;1.00;;
30398;SDS011;17195;50.838;7.214;2023-03-31T00:28:54;3.17;;;1.00;;
30398;SDS011;17195;50.838;7.214;2023-03-31T00:31:20;4.25;;;1.17;;
30398;SDS011;17195;50.838;7.214;2023-03-31T00:33:47;2.83;;;0.70;;
30398;SDS011;17195;50.838;7.214;2023-03-31T00:36:13;6.13;;;1.27;;
30398;SDS011;17195;50.838;7.214;2023-03-31T00:38:45;3.55;;;1.10;;
30398;SDS011;17195;50.838;7.214;2023-03-31T00:41:12;3.50;;;0.77;;
30398;SDS011;17195;50.838;7.214;2023-03-31T00:43:38;6.45;;;1.08;;
30398;SDS011;17195;50.838;7.214;2023-03-31T00:48:48;4.43;;;1.13;;
30398;SDS011;17195;50.838;7.214;2023-03-31T00:51:15;3.60;;;0.80;;
30398;SDS011;17195;50.838;7.214;2023-03-31T00:53:43;2.95;;;0.80;;
30398;SDS011;17195;50.838;7.214;2023-03-31T00:56:12;4.28;;;0.77;;
30398;SDS011;17195;50.838;7.214;2023-03-31T00:58:39;4.15;;;0.95;;
30398;SDS011;17195;50.838;7.214;2023-03-31T01:01:07;4.22;;;1.30;;
30398;SDS011;17195;50.838;7.214;2023-03-31T01:03:38;3.20;;;0.73;;
30398;SDS011;17195;50.838;7.214;2023-03-31T01:06:06;4.45;;;1.05;;
30398;SDS011;17195;50.838;7.214;2023-03-31T01:08:34;5.78;;;0.80;;
30398;SDS011;17195;50.838;7.214;2023-03-31T01:11:03;1.65;;;0.65;;
30398;SDS011;17195;50.838;7.214;2023-03-31T01:13:31;3.33;;;0.75;;
30398;SDS011;17195;50.838;7.214;2023-03-31T01:15:59;2.88;;;0.80;;
30398;SDS011;17195;50.838;7.214;2023-03-31T01:18:24;4.50;;;0.85;;
30398;SDS011;17195;50.838;7.214;2023-03-31T01:20:59;4.00;;;1.20;;
30398;SDS011;17195;50.838;7.214;2023-03-31T01:24:06;6.18;;;1.17;;
30398;SDS011;17195;50.838;7.214;2023-03-31T01:32:25;6.60;;;1.17;;
30398;SDS011;17195;50.838;7.214;2023-03-31T01:40:28;8.82;;;1.58;;
30398;SDS011;17195;50.838;7.214;2023-03-31T01:45:47;7.47;;;1.08;;
30398;SDS011;17195;50.838;7.214;2023-03-31T01:56:44;5.77;;;1.33;;
30398;SDS011;17195;50.838;7.214;2023-03-31T01:59:15;11.73;;;2.10;;
30398;SDS011;17195;50.838;7.214;2023-03-31T02:04:21;8.70;;;1.30;;
30398;SDS011;17195;50.838;7.214;2023-03-31T02:06:53;11.98;;;1.92;;
30398;SDS011;17195;50.838;7.214;2023-03-31T02:09:24;11.50;;;1.48;;
30398;SDS011;17195;50.838;7.214;2023-03-31T02:11:53;10.82;;;2.10;;
30398;SDS011;17195;50.838;7.214;2023-03-31T02:14:22;8.20;;;1.58;;
30398;SDS011;17195;50.838;7.214;2023-03-31T02:16:52;11.25;;;1.58;;
30398;SDS011;17195;50.838;7.214;2023-03-31T02:19:27;8.90;;;1.75;;
30398;SDS011;17195;50.838;7.214;2023-03-31T02:21:56;10.10;;;1.98;;
30398;SDS011;17195;50.838;7.214;2023-03-31T02:24:23;10.27;;;1.23;;
30398;SDS011;17195;50.838;7.214;2023-03-31T02:26:52;8.43;;;1.60;;
30398;SDS011;17195;50.838;7.214;2023-03-31T02:29:23;12.20;;;1.90;;
30398;SDS011;17195;50.838;7.214;2023-03-31T02:31:58;9.77;;;1.70;;
30398;SDS011;17195;50.838;7.214;2023-03-31T02:34:27;12.82;;;1.88;;
30398;SDS011;17195;50.838;7.214;2023-03-31T02:36:53;9.20;;;1.50;;
30398;SDS011;17195;50.838;7.214;2023-03-31T02:39:24;5.95;;;1.13;;
30398;SDS011;17195;50.838;7.214;2023-03-31T02:41:53;5.72;;;1.05;;
30398;SDS011;17195;50.838;7.214;2023-03-31T02:44:18;9.32;;;1.52;;
30398;SDS011;17195;50.838;7.214;2023-03-31T02:46:45;8.70;;;1.38;;
30398;SDS011;17195;50.838;7.214;2023-03-31T02:49:11;7.20;;;1.48;;
30398;SDS011;17195;50.838;7.214;2023-03-31T02:54:31;8.18;;;1.25;;
30398;SDS011;17195;50.838;7.214;2023-03-31T02:57:32;6.97;;;1.30;;
30398;SDS011;17195;50.838;7.214;2023-03-31T03:09:17;5.13;;;0.95;;
30398;SDS011;17195;50.838;7.214;2023-03-31T03:14:43;8.73;;;1.30;;
30398;SDS011;17195;50.838;7.214;2023-03-31T03:17:54;6.72;;;1.42;;
30398;SDS011;17195;50.838;7.214;2023-03-31T03:20:05;10.30;;;2.00;;
30398;SDS011;17195;50.838;7.214;2023-03-31T03:22:33;6.95;;;1.33;;
30398;SDS011;17195;50.838;7.214;2023-03-31T03:24:59;5.70;;;1.35;;
30398;SDS011;17195;50.838;7.214;2023-03-31T03:27:25;8.15;;;1.58;;
30398;SDS011;17195;50.838;7.214;2023-03-31T03:29:51;8.27;;;1.50;;
30398;SDS011;17195;50.838;7.214;2023-03-31T03:32:16;7.35;;;1.73;;
30398;SDS011;17195;50.838;7.214;2023-03-31T03:34:42;8.85;;;1.75;;
30398;SDS011;17195;50.838;7.214;2023-03-31T03:37:07;8.35;;;1.50;;
30398;SDS011;17195;50.838;7.214;2023-03-31T03:39:33;8.55;;;1.50;;
30398;SDS011;17195;50.838;7.214;2023-03-31T03:41:58;9.55;;;1.50;;
30398;SDS011;17195;50.838;7.214;2023-03-31T03:44:24;6.47;;;1.30;;
30398;SDS011;17195;50.838;7.214;2023-03-31T03:46:50;8.95;;;1.60;;
30398;SDS011;17195;50.838;7.214;2023-03-31T03:49:15;9.80;;;1.67;;
30398;SDS011;17195;50.838;7.214;2023-03-31T03:51:41;7.65;;;1.40;;
30398;SDS011;17195;50.838;7.214;2023-03-31T03:54:06;6.47;;;1.48;;
30398;SDS011;17195;50.838;7.214;2023-03-31T03:56:32;8.73;;;1.60;;
30398;SDS011;17195;50.838;7.214;2023-03-31T03:58:57;4.55;;;1.05;;
30398;SDS011;17195;50.838;7.214;2023-03-31T04:01:23;7.78;;;1.58;;
30398;SDS011;17195;50.838;7.214;2023-03-31T04:03:49;8.18;;;1.38;;
30398;SDS011;17195;50.838;7.214;2023-03-31T04:06:14;7.85;;;2.20;;
30398;SDS011;17195;50.838;7.214;2023-03-31T04:08:40;7.57;;;1.58;;
30398;SDS011;17195;50.838;7.214;2023-03-31T04:11:13;5.65;;;1.30;;
30398;SDS011;17195;50.838;7.214;2023-03-31T04:16:07;8.13;;;1.15;;
30398;SDS011;17195;50.838;7.214;2023-03-31T04:18:32;4.95;;;1.15;;
30398;SDS011;17195;50.838;7.214;2023-03-31T04:21:01;3.65;;;1.05;;
30398;SDS011;17195;50.838;7.214;2023-03-31T04:23:33;7.25;;;1.20;;
30398;SDS011;17195;50.838;7.214;2023-03-31T04:26:10;4.05;;;0.95;;
30398;SDS011;17195;50.838;7.214;2023-03-31T04:28:36;8.23;;;1.33;;
30398;SDS011;17195;50.838;7.214;2023-03-31T04:31:07;2.95;;;1.10;;
30398;SDS011;17195;50.838;7.214;2023-03-31T04:33:33;5.28;;;1.00;;
30398;SDS011;17195;50.838;7.214;2023-03-31T04:36:03;4.00;;;0.90;;
30398;SDS011;17195;50.838;7.214;2023-03-31T04:38:45;3.42;;;0.70;;
30398;SDS011;17195;50.838;7.214;2023-03-31T04:41:14;6.45;;;0.90;;
30398;SDS011;17195;50.838;7.214;2023-03-31T04:43:41;4.07;;;0.85;;
30398;SDS011;17195;50.838;7.214;2023-03-31T04:46:07;3.95;;;0.93;;
30398;SDS011;17195;50.838;7.214;2023-03-31T04:48:32;2.03;;;0.70;;
30398;SDS011;17195;50.838;7.214;2023-03-31T04:50:58;4.90;;;1.15;;
30398;SDS011;17195;50.838;7.214;2023-03-31T04:53:24;3.55;;;0.80;;
30398;SDS011;17195;50.838;7.214;2023-03-31T04:55:50;3.95;;;0.77;;
30398;SDS011;17195;50.838;7.214;2023-03-31T04:58:16;1.38;;;0.60;;
30398;SDS011;17195;50.838;7.214;2023-03-31T05:00:41;2.90;;;0.60;;
30398;SDS011;17195;50.838;7.214;2023-03-31T05:03:07;3.97;;;1.10;;
30398;SDS011;17195;50.838;7.214;2023-03-31T05:05:33;6.18;;;1.00;;
30398;SDS011;17195;50.838;7.214;2023-03-31T05:07:59;3.65;;;0.65;;
30398;SDS011;17195;50.838;7.214;2023-03-31T05:10:25;6.38;;;0.90;;
30398;SDS011;17195;50.838;7.214;2023-03-31T05:12:50;5.88;;;0.80;;
30398;SDS011;17195;50.838;7.214;2023-03-31T05:15:16;2.92;;;0.82;;
30398;SDS011;17195;50.838;7.214;2023-03-31T05:17:42;5.68;;;1.50;;
30398;SDS011;17195;50.838;7.214;2023-03-31T05:20:08;6.78;;;1.58;;
30398;SDS011;17195;50.838;7.214;2023-03-31T05:22:37;3.70;;;1.10;;
30398;SDS011;17195;50.838;7.214;2023-03-31T05:25:03;3.00;;;0.77;;
30398;SDS011;17195;50.838;7.214;2023-03-31T05:27:31;4.78;;;1.00;;
30398;SDS011;17195;50.838;7.214;2023-03-31T05:29:57;4.78;;;0.90;;
30398;SDS011;17195;50.838;7.214;2023-03-31T05:32:23;6.18;;;0.90;;
30398;SDS011;17195;50.838;7.214;2023-03-31T05:34:49;3.10;;;0.80;;
30398;SDS011;17195;50.838;7.214;2023-03-31T05:37:16;4.55;;;0.95;;
30398;SDS011;17195;50.838;7.214;2023-03-31T05:39:43;3.40;;;1.00;;
30398;SDS011;17195;50.838;7.214;2023-03-31T05:42:09;3.78;;;0.98;;
30398;SDS011;17195;50.838;7.214;2023-03-31T05:44:35;4.57;;;0.93;;
30398;SDS011;17195;50.838;7.214;2023-03-31T05:47:00;4.38;;;1.20;;
30398;SDS011;17195;50.838;7.214;2023-03-31T05:49:26;5.10;;;1.40;;
30398;SDS011;17195;50.838;7.214;2023-03-31T05:51:51;2.63;;;0.70;;
30398;SDS011;17195;50.838;7.214;2023-03-31T05:54:17;2.78;;;0.70;;
30398;SDS011;17195;50.838;7.214;2023-03-31T05:56:43;6.57;;;0.82;;
30398;SDS011;17195;50.838;7.214;2023-03-31T05:59:08;2.85;;;0.57;;
30398;SDS011;17195;50.838;7.214;2023-03-31T06:01:34;2.15;;;0.55;;
30398;SDS011;17195;50.838;7.214;2023-03-31T06:03:59;3.22;;;0.57;;
30398;SDS011;17195;50.838;7.214;2023-03-31T06:06:25;3.05;;;0.40;;
30398;SDS011;17195;50.838;7.214;2023-03-31T06:08:51;1.45;;;0.43;;
30398;SDS011;17195;50.838;7.214;2023-03-31T06:11:18;3.13;;;0.40;;
30398;SDS011;17195;50.838;7.214;2023-03-31T06:13:45;1.42;;;0.60;;
30398;SDS011;17195;50.838;7.214;2023-03-31T06:16:11;0.80;;;0.30;;
30398;SDS011;17195;50.838;7.214;2023-03-31T06:18:38;1.33;;;0.30;;
30398;SDS011;17195;50.838;7.214;2023-03-31T06:21:04;1.02;;;0.40;;
30398;SDS011;17195;50.838;7.214;2023-03-31T06:23:30;1.35;;;0.30;;
30398;SDS011;17195;50.838;7.214;2023-03-31T06:26:01;2.33;;;0.57;;
30398;SDS011;17195;50.838;7.214;2023-03-31T06:28:28;3.13;;;0.28;;
30398;SDS011;17195;50.838;7.214;2023-03-31T06:31:02;4.95;;;0.43;;
30398;SDS011;17195;50.838;7.214;2023-03-31T06:33:29;0.65;;;0.20;;
30398;SDS011;17195;50.838;7.214;2023-03-31T06:35:56;0.80;;;0.20;;
30398;SDS011;17195;50.838;7.214;2023-03-31T06:38:23;0.60;;;0.30;;
30398;SDS011;17195;50.838;7.214;2023-03-31T06:40:50;0.40;;;0.20;;
30398;SDS011;17195;50.838;7.214;2023-03-31T06:43:15;0.80;;;0.30;;
30398;SDS011;17195;50.838;7.214;2023-03-31T06:45:41;2.63;;;0.80;;
30398;SDS011;17195;50.838;7.214;2023-03-31T06:48:07;2.95;;;0.32;;
30398;SDS011;17195;50.838;7.214;2023-03-31T06:50:32;2.30;;;0.20;;
30398;SDS011;17195;50.838;7.214;2023-03-31T06:52:58;2.05;;;0.20;;
30398;SDS011;17195;50.838;7.214;2023-03-31T06:55:24;1.65;;;0.30;;
30398;SDS011;17195;50.838;7.214;2023-03-31T06:57:49;1.08;;;0.20;;
30398;SDS011;17195;50.838;7.214;2023-03-31T07:00:15;0.95;;;0.32;;
30398;SDS011;17195;50.838;7.214;2023-03-31T07:02:41;1.40;;;0.30;;
30398;SDS011;17195;50.838;7.214;2023-03-31T07:05:07;1.85;;;0.50;;
30398;SDS011;17195;50.838;7.214;2023-03-31T07:07:33;1.83;;;0.30;;
30398;SDS011;17195;50.838;7.214;2023-03-31T07:09:59;1.25;;;0.43;;
30398;SDS011;17195;50.838;7.214;2023-03-31T07:12:24;1.75;;;0.40;;
30398;SDS011;17195;50.838;7.214;2023-03-31T07:14:50;3.13;;;0.40;;
30398;SDS011;17195;50.838;7.214;2023-03-31T07:17:15;2.58;;;0.40;;
30398;SDS011;17195;50.838;7.214;2023-03-31T07:19:41;2.55;;;0.57;;
30398;SDS011;17195;50.838;7.214;2023-03-31T07:22:07;1.85;;;0.40;;
30398;SDS011;17195;50.838;7.214;2023-03-31T07:24:33;1.23;;;0.40;;
30398;SDS011;17195;50.838;7.214;2023-03-31T07:26:58;1.25;;;0.40;;
30398;SDS011;17195;50.838;7.214;2023-03-31T07:29:24;3.10;;;0.43;;
30398;SDS011;17195;50.838;7.214;2023-03-31T07:31:50;2.35;;;0.88;;
30398;SDS011;17195;50.838;7.214;2023-03-31T07:34:16;2.80;;;1.15;;
30398;SDS011;17195;50.838;7.214;2023-03-31T07:36:42;5.35;;;0.70;;
30398;SDS011;17195;50.838;7.214;2023-03-31T07:39:07;1.17;;;0.40;;
30398;SDS011;17195;50.838;7.214;2023-03-31T07:41:33;4.45;;;0.35;;
30398;SDS011;17195;50.838;7.214;2023-03-31T07:43:58;2.03;;;0.40;;
30398;SDS011;17195;50.838;7.214;2023-03-31T07:46:25;0.88;;;0.40;;
30398;SDS011;17195;50.838;7.214;2023-03-31T07:48:52;2.40;;;0.47;;
30398;SDS011;17195;50.838;7.214;2023-03-31T07:51:21;1.35;;;0.60;;
30398;SDS011;17195;50.838;7.214;2023-03-31T07:53:48;0.98;;;0.40;;
30398;SDS011;17195;50.838;7.214;2023-03-31T07:56:16;2.83;;;0.50;;
30398;SDS011;17195;50.838;7.214;2023-03-31T07:58:43;1.63;;;0.60;;
30398;SDS011;17195;50.838;7.214;2023-03-31T08:01:09;1.95;;;0.57;;
30398;SDS011;17195;50.838;7.214;2023-03-31T08:03:40;1.85;;;0.50;;
30398;SDS011;17195;50.838;7.214;2023-03-31T08:06:06;1.80;;;0.63;;
30398;SDS011;17195;50.838;7.214;2023-03-31T08:08:32;3.92;;;0.70;;
30398;SDS011;17195;50.838;7.214;2023-03-31T08:10:58;2.30;;;0.73;;
30398;SDS011;17195;50.838;7.214;2023-03-31T08:13:23;5.03;;;0.73;;
30398;SDS011;17195;50.838;7.214;2023-03-31T08:15:49;3.72;;;0.77;;
30398;SDS011;17195;50.838;7.214;2023-03-31T08:18:15;1.83;;;0.50;;
30398;SDS011;17195;50.838;7.214;2023-03-31T08:20:41;2.50;;;0.60;;
30398;SDS011;17195;50.838;7.214;2023-03-31T08:23:07;3.10;;;0.70;;
30398;SDS011;17195;50.838;7.214;2023-03-31T08:25:35;1.02;;;0.50;;
30398;SDS011;17195;50.838;7.214;2023-03-31T08:28:01;2.92;;;0.80;;
30398;SDS011;17195;50.838;7.214;2023-03-31T08:30:26;1.73;;;0.40;;
30398;SDS011;17195;50.838;7.214;2023-03-31T08:32:52;3.63;;;0.60;;
30398;SDS011;17195;50.838;7.214;2023-03-31T08:35:17;2.38;;;0.50;;
30398;SDS011;17195;50.838;7.214;2023-03-31T08:37:43;2.13;;;0.70;;
30398;SDS011;17195;50.838;7.214;2023-03-31T08:40:13;6.70;;;0.95;;
30398;SDS011;17195;50.838;7.214;2023-03-31T08:42:44;2.72;;;0.68;;
30398;SDS011;17195;50.838;7.214;2023-03-31T08:45:19;2.30;;;0.75;;
30398;SDS011;17195;50.838;7.214;2023-03-31T08:48:02;4.07;;;0.82;;
30398;SDS011;17195;50.838;7.214;2023-03-31T08:50:47;5.63;;;0.85;;
30398;SDS011;17195;50.838;7.214;2023-03-31T08:53:27;3.47;;;1.20;;
30398;SDS011;17195;50.838;7.214;2023-03-31T08:55:56;4.88;;;0.80;;
30398;SDS011;17195;50.838;7.214;2023-03-31T09:03:58;3.83;;;0.95;;
30398;SDS011;17195;50.838;7.214;2023-03-31T09:09:04;5.35;;;1.20;;
30398;SDS011;17195;50.838;7.214;2023-03-31T09:11:39;6.40;;;1.17;;
30398;SDS011;17195;50.838;7.214;2023-03-31T09:14:21;4.57;;;1.10;;
30398;SDS011;17195;50.838;7.214;2023-03-31T09:19:42;7.03;;;1.60;;
30398;SDS011;17195;50.838;7.214;2023-03-31T09:22:23;8.20;;;1.60;;
30398;SDS011;17195;50.838;7.214;2023-03-31T09:25:11;9.25;;;1.60;;
30398;SDS011;17195;50.838;7.214;2023-03-31T09:27:43;7.53;;;1.27;;
30398;SDS011;17195;50.838;7.214;2023-03-31T09:30:15;8.30;;;1.30;;
30398;SDS011;17195;50.838;7.214;2023-03-31T09:32:47;8.52;;;1.38;;
30398;SDS011;17195;50.838;7.214;2023-03-31T09:35:17;9.05;;;1.90;;
30398;SDS011;17195;50.838;7.214;2023-03-31T09:37:45;6.20;;;1.48;;
30398;SDS011;17195;50.838;7.214;2023-03-31T09:40:16;8.00;;;1.58;;
30398;SDS011;17195;50.838;7.214;2023-03-31T09:42:47;6.78;;;1.50;;
30398;SDS011;17195;50.838;7.214;2023-03-31T09:45:25;5.95;;;1.38;;
30398;SDS011;17195;50.838;7.214;2023-03-31T09:47:52;9.95;;;1.60;;
30398;SDS011;17195;50.838;7.214;2023-03-31T09:50:19;8.48;;;2.13;;
30398;SDS011;17195;50.838;7.214;2023-03-31T09:52:50;6.60;;;1.50;;
30398;SDS011;17195;50.838;7.214;2023-03-31T09:57:44;6.13;;;1.83;;
30398;SDS011;17195;50.838;7.214;2023-03-31T10:02:55;9.32;;;1.95;;
30398;SDS011;17195;50.838;7.214;2023-03-31T10:11:23;6.63;;;1.63;;
30398;SDS011;17195;50.838;7.214;2023-03-31T10:13:34;12.95;;;1.75;;
30398;SDS011;17195;50.838;7.214;2023-03-31T10:16:29;10.40;;;2.08;;
30398;SDS011;17195;50.838;7.214;2023-03-31T10:19:12;10.45;;;1.95;;
30398;SDS011;17195;50.838;7.214;2023-03-31T10:24:20;7.32;;;1.38;;
30398;SDS011;17195;50.838;7.214;2023-03-31T10:26:47;8.27;;;1.70;;
30398;SDS011;17195;50.838;7.214;2023-03-31T10:29:17;9.20;;;2.17;;
30398;SDS011;17195;50.838;7.214;2023-03-31T10:31:53;8.05;;;1.50;;
30398;SDS011;17195;50.838;7.214;2023-03-31T10:34:19;7.95;;;1.30;;
30398;SDS011;17195;50.838;7.214;2023-03-31T10:36:48;8.68;;;1.60;;
30398;SDS011;17195;50.838;7.214;2023-03-31T10:39:18;9.25;;;2.10;;
30398;SDS011;17195;50.838;7.214;2023-03-31T10:41:50;10.02;;;1.92;;
30398;SDS011;17195;50.838;7.214;2023-03-31T10:44:33;9.90;;;1.30;;
30398;SDS011;17195;50.838;7.214;2023-03-31T10:47:05;5.47;;;1.20;;
30398;SDS011;17195;50.838;7.214;2023-03-31T10:49:38;7.07;;;1.33;;
30398;SDS011;17195;50.838;7.214;2023-03-31T10:52:14;6.90;;;1.77;;
30398;SDS011;17195;50.838;7.214;2023-03-31T10:54:57;5.13;;;1.50;;
30398;SDS011;17195;50.838;7.214;2023-03-31T10:57:47;7.13;;;1.10;;
30398;SDS011;17195;50.838;7.214;2023-03-31T11:00:35;3.38;;;0.90;;
30398;SDS011;17195;50.838;7.214;2023-03-31T11:14:00;5.60;;;1.30;;
30398;SDS011;17195;50.838;7.214;2023-03-31T11:19:27;8.05;;;1.30;;
30398;SDS011;17195;50.838;7.214;2023-03-31T11:24:49;3.33;;;0.80;;
30398;SDS011;17195;50.838;7.214;2023-03-31T11:32:55;5.15;;;1.23;;
30398;SDS011;17195;50.838;7.214;2023-03-31T11:41:02;3.72;;;1.08;;
30398;SDS011;17195;50.838;7.214;2023-03-31T11:43:33;8.10;;;1.42;;
30398;SDS011;17195;50.838;7.214;2023-03-31T11:48:56;2.90;;;1.30;;
30398;SDS011;17195;50.838;7.214;2023-03-31T11:51:27;5.47;;;1.10;;
30398;SDS011;17195;50.838;7.214;2023-03-31T11:54:02;3.08;;;0.52;;
30398;SDS011;17195;50.838;7.214;2023-03-31T11:56:36;3.38;;;1.08;;
30398;SDS011;17195;50.838;7.214;2023-03-31T11:59:03;5.60;;;0.77;;
30398;SDS011;17195;50.838;7.214;2023-03-31T12:06:47;4.07;;;1.00;;
30398;SDS011;17195;50.838;7.214;2023-03-31T12:09:20;5.82;;;1.63;;
30398;SDS011;17195;50.838;7.214;2023-03-31T12:14:40;4.20;;;1.02;;
30398;SDS011;17195;50.838;7.214;2023-03-31T12:17:14;6.68;;;1.20;;
30398;SDS011;17195;50.838;7.214;2023-03-31T12:22:31;7.45;;;1.58;;
30398;SDS011;17195;50.838;7.214;2023-03-31T12:27:38;9.40;;;1.33;;
30398;SDS011;17195;50.838;7.214;2023-03-31T12:30:13;9.50;;;1.73;;
30398;SDS011;17195;50.838;7.214;2023-03-31T12:32:52;3.85;;;0.90;;
30398;SDS011;17195;50.838;7.214;2023-03-31T12:35:27;5.05;;;0.90;;
30398;SDS011;17195;50.838;7.214;2023-03-31T12:38:07;5.40;;;0.98;;
30398;SDS011;17195;50.838;7.214;2023-03-31T12:40:49;6.72;;;1.45;;
30398;SDS011;17195;50.838;7.214;2023-03-31T12:46:38;5.15;;;0.85;;
30398;SDS011;17195;50.838;7.214;2023-03-31T12:57:29;5.22;;;1.02;;
30398;SDS011;17195;50.838;7.214;2023-03-31T13:02:36;4.72;;;0.93;;
30398;SDS011;17195;50.838;7.214;2023-03-31T13:08:08;6.00;;;1.17;;
30398;SDS011;17195;50.838;7.214;2023-03-31T13:11:07;6.60;;;1.17;;
30398;SDS011;17195;50.838;7.214;2023-03-31T13:13:26;10.90;;;0.90;;
30398;SDS011;17195;50.838;7.214;2023-03-31T13:15:52;4.65;;;1.00;;
30398;SDS011;17195;50.838;7.214;2023-03-31T13:18:20;3.83;;;0.85;;
30398;SDS011;17195;50.838;7.214;2023-03-31T13:20:59;5.22;;;1.25;;
30398;SDS011;17195;50.838;7.214;2023-03-31T13:23:29;5.45;;;1.20;;
30398;SDS011;17195;50.838;7.214;2023-03-31T13:25:58;8.98;;;1.30;;
30398;SDS011;17195;50.838;7.214;2023-03-31T13:28:30;8.55;;;2.03;;
30398;SDS011;17195;50.838;7.214;2023-03-31T13:30:57;6.20;;;1.30;;
30398;SDS011;17195;50.838;7.214;2023-03-31T13:41:47;9.82;;;1.40;;
30398;SDS011;17195;50.838;7.214;2023-03-31T13:44:48;8.75;;;2.05;;
30398;SDS011;17195;50.838;7.214;2023-03-31T13:53:25;6.20;;;1.30;;
30398;SDS011;17195;50.838;7.214;2023-03-31T14:07:55;6.70;;;2.03;;
30398;SDS011;17195;50.838;7.214;2023-03-31T14:13:05;9.82;;;1.88;;
30398;SDS011;17195;50.838;7.214;2023-03-31T14:15:36;5.43;;;1.30;;
30398;SDS011;17195;50.838;7.214;2023-03-31T14:18:05;6.45;;;2.10;;
30398;SDS011;17195;50.838;7.214;2023-03-31T14:20:39;6.38;;;1.75;;
30398;SDS011;17195;50.838;7.214;2023-03-31T14:26:06;6.15;;;1.70;;
30398;SDS011;17195;50.838;7.214;2023-03-31T14:28:46;7.20;;;1.65;;
30398;SDS011;17195;50.838;7.214;2023-03-31T14:31:46;5.20;;;0.80;;
30398;SDS011;17195;50.838;7.214;2023-03-31T14:36:58;5.80;;;1.20;;
30398;SDS011;17195;50.838;7.214;2023-03-31T14:39:29;2.53;;;1.23;;
30398;SDS011;17195;50.838;7.214;2023-03-31T14:42:04;7.03;;;1.38;;
30398;SDS011;17195;50.838;7.214;2023-03-31T14:44:35;5.13;;;1.17;;
30398;SDS011;17195;50.838;7.214;2023-03-31T14:47:02;4.47;;;0.98;;
30398;SDS011;17195;50.838;7.214;2023-03-31T14:49:34;4.28;;;1.00;;
30398;SDS011;17195;50.838;7.214;2023-03-31T14:52:03;6.10;;;1.20;;
30398;SDS011;17195;50.838;7.214;2023-03-31T14:54:37;6.20;;;1.13;;
30398;SDS011;17195;50.838;7.214;2023-03-31T14:57:05;7.57;;;1.30;;
30398;SDS011;17195;50.838;7.214;2023-03-31T14:59:31;6.93;;;1.23;;
30398;SDS011;17195;50.838;7.214;2023-03-31T15:01:59;5.93;;;1.42;;
30398;SDS011;17195;50.838;7.214;2023-03-31T15:04:28;3.92;;;0.90;;
30398;SDS011;17195;50.838;7.214;2023-03-31T15:06:54;5.97;;;1.05;;
30398;SDS011;17195;50.838;7.214;2023-03-31T15:09:23;4.13;;;0.73;;
30398;SDS011;17195;50.838;7.214;2023-03-31T15:11:55;3.10;;;0.90;;
30398;SDS011;17195;50.838;7.214;2023-03-31T15:14:27;5.55;;;1.00;;
30398;SDS011;17195;50.838;7.214;2023-03-31T15:16:54;2.92;;;1.05;;
30398;SDS011;17195;50.838;7.214;2023-03-31T15:19:24;4.38;;;1.10;;
30398;SDS011;17195;50.838;7.214;2023-03-31T15:21:58;2.75;;;0.73;;
30398;SDS011;17195;50.838;7.214;2023-03-31T15:24:33;6.60;;;1.65;;
30398;SDS011;17195;50.838;7.214;2023-03-31T15:27:02;6.30;;;0.95;;
30398;SDS011;17195;50.838;7.214;2023-03-31T15:29:43;4.03;;;0.70;;
30398;SDS011;17195;50.838;7.214;2023-03-31T15:32:15;2.50;;;0.75;;
30398;SDS011;17195;50.838;7.214;2023-03-31T15:34:56;3.83;;;0.88;;
30398;SDS011;17195;50.838;7.214;2023-03-31T15:37:24;5.72;;;1.00;;
30398;SDS011;17195;50.838;7.214;2023-03-31T15:39:54;5.28;;;1.42;;
30398;SDS011;17195;50.838;7.214;2023-03-31T15:42:22;6.03;;;1.20;;
30398;SDS011;17195;50.838;7.214;2023-03-31T15:47:48;11.10;;;5.53;;
30398;SDS011;17195;50.838;7.214;2023-03-31T15:50:17;3.80;;;0.90;;
30398;SDS011;17195;50.838;7.214;2023-03-31T15:52:50;3.78;;;1.27;;
30398;SDS011;17195;50.838;7.214;2023-03-31T15:55:24;2.95;;;0.98;;
30398;SDS011;17195;50.838;7.214;2023-03-31T15:58:03;5.82;;;2.45;;
30398;SDS011;17195;50.838;7.214;2023-03-31T16:05:52;3.83;;;1.13;;
30398;SDS011;17195;50.838;7.214;2023-03-31T16:08:24;4.72;;;1.30;;
30398;SDS011;17195;50.838;7.214;2023-03-31T16:10:58;6.57;;;3.03;;
30398;SDS011;17195;50.838;7.214;2023-03-31T16:13:27;4.40;;;1.83;;
30398;SDS011;17195;50.838;7.214;2023-03-31T16:15:55;6.25;;;1.50;;
30398;SDS011;17195;50.838;7.214;2023-03-31T16:18:32;6.32;;;2.33;;
30398;SDS011;17195;50.838;7.214;2023-03-31T16:21:02;3.42;;;1.10;;
30398;SDS011;17195;50.838;7.214;2023-03-31T16:23:31;6.78;;;1.30;;
30398;SDS011;17195;50.838;7.214;2023-03-31T16:25:59;9.90;;;3.35;;
30398;SDS011;17195;50.838;7.214;2023-03-31T16:28:26;4.75;;;1.17;;
30398;SDS011;17195;50.838;7.214;2023-03-31T16:30:54;7.13;;;1.67;;
30398;SDS011;17195;50.838;7.214;2023-03-31T16:33:20;4.82;;;1.40;;
30398;SDS011;17195;50.838;7.214;2023-03-31T16:35:48;4.65;;;1.33;;
30398;SDS011;17195;50.838;7.214;2023-03-31T16:38:17;2.67;;;0.70;;
30398;SDS011;17195;50.838;7.214;2023-03-31T16:40:45;2.22;;;0.60;;
30398;SDS011;17195;50.838;7.214;2023-03-31T16:43:18;2.28;;;0.77;;
30398;SDS011;17195;50.838;7.214;2023-03-31T16:45:46;2.40;;;0.50;;
30398;SDS011;17195;50.838;7.214;2023-03-31T16:48:16;3.65;;;0.93;;
30398;SDS011;17195;50.838;7.214;2023-03-31T16:50:46;3.38;;;0.60;;
30398;SDS011;17195;50.838;7.214;2023-03-31T16:53:14;5.82;;;0.77;;
30398;SDS011;17195;50.838;7.214;2023-03-31T16:55:42;5.32;;;1.27;;
30398;SDS011;17195;50.838;7.214;2023-03-31T16:58:08;2.03;;;0.65;;
30398;SDS011;17195;50.838;7.214;2023-03-31T17:00:34;2.10;;;0.75;;
30398;SDS011;17195;50.838;7.214;2023-03-31T17:03:01;2.50;;;0.55;;
30398;SDS011;17195;50.838;7.214;2023-03-31T17:05:27;2.47;;;0.70;;
30398;SDS011;17195;50.838;7.214;2023-03-31T17:07:56;4.00;;;0.68;;
30398;SDS011;17195;50.838;7.214;2023-03-31T17:10:22;1.67;;;0.60;;
30398;SDS011;17195;50.838;7.214;2023-03-31T17:12:48;3.63;;;0.80;;
30398;SDS011;17195;50.838;7.214;2023-03-31T17:15:13;3.58;;;0.60;;
30398;SDS011;17195;50.838;7.214;2023-03-31T17:17:40;4.78;;;0.90;;
30398;SDS011;17195;50.838;7.214;2023-03-31T17:20:06;5.05;;;0.77;;
30398;SDS011;17195;50.838;7.214;2023-03-31T17:22:33;2.53;;;0.47;;
30398;SDS011;17195;50.838;7.214;2023-03-31T17:24:59;3.65;;;0.65;;
30398;SDS011;17195;50.838;7.214;2023-03-31T17:27:25;3.10;;;0.70;;
30398;SDS011;17195;50.838;7.214;2023-03-31T17:29:52;9.20;;;2.95;;
30398;SDS011;17195;50.838;7.214;2023-03-31T17:32:17;4.22;;;1.15;;
30398;SDS011;17195;50.838;7.214;2023-03-31T17:34:43;3.67;;;1.38;;
30398;SDS011;17195;50.838;7.214;2023-03-31T17:37:11;4.60;;;1.80;;
30398;SDS011;17195;50.838;7.214;2023-03-31T17:39:37;3.30;;;1.20;;
30398;SDS011;17195;50.838;7.214;2023-03-31T17:42:03;3.58;;;1.20;;
30398;SDS011;17195;50.838;7.214;2023-03-31T17:44:29;3.40;;;0.85;;
30398;SDS011;17195;50.838;7.214;2023-03-31T17:46:55;3.28;;;0.95;;
30398;SDS011;17195;50.838;7.214;2023-03-31T17:49:21;4.53;;;0.70;;
30398;SDS011;17195;50.838;7.214;2023-03-31T17:51:47;5.63;;;1.15;;
30398;SDS011;17195;50.838;7.214;2023-03-31T17:54:13;7.05;;;1.25;;
30398;SDS011;17195;50.838;7.214;2023-03-31T17:56:38;4.15;;;1.02;;